Country
Station

 

Weather  for  Chattanooga, Lovell Field  -  United States    United States

  
17 °C (63 °F)
    
 
 

Current METAR for Chattanooga, Lovell Field is :

KCHA 211753Z 00000KT 10SM SCT070 SCT090 17/04 A3021 RMK AO2 SLP230 T01670039 10167 21011 58025 $

 

This is a report for Chattanooga, Lovell Field - United States.
 
The report was made 10 minutes ago, at 17:53 UTC .
The wind was calm.
 
The temperature was 17 °C (63 °F), with a dew-point at 4 °C (39 °F).
The atmospheric pressure was 1023 hPa (30.21 inHg).
The relative humidity was 42.0%.
 
There were scattered clouds at a height of 2134 meters (7000 feet) and scattered clouds at a height of 2743 meters (9000 feet).
 
The overall visibility was 16.1 kilometers (10.0 miles).
 

 
 
 
 

Country :   A   B   C   D   E   F   G   H   I   J   K   L   M   N   O   P   Q   R   S   T   U   V   W   Y   Z

 

Site Info  |  Disclaimer  |  Credits  |  Privacy
Contact us  |  Add to favorites
© 2013-2018 METARs - All rights reserved